Página principal
METAR-TAF:

METAR-TAF

Aeroportos :

Aeroporto de Tehran-Imam Khomeini

Teerã, Irão

latitude: 35-24-58N, longitude: 51-09-08E, altura: 1007 m

Observação actual do tempo

O boletim foi feito há 26 minutos, às 03:00 UTC
Vento 4 kt de noroeste
Temperatura 17°C
Humidade 59%
Pressão 1016 hPa
Visibilidade 10 km ou mais
sem nuvens abaixo de 1500 metros e sem cumulonimbus

METAR: OIIE 230300Z 31004KT CAVOK 17/09 Q1016

Hora: 07:56 (03:26 UTC)

Previsão

O boletim foi feito há 4 horas e 26 minutos, às 23:00 UTC
Previsão válida de 23 às 00 UTC a 24 às 06 UTC
Vento 8 kt de oes-noroeste
Visibilidade 10 km ou mais
Poucas nuvensa uma altura de 3500 ft
Temporariamente
de 23 às 10 UTC a 23 às 15 UTC
Vento 8 kt de oes-noroeste com rajadas de 18 kt

TAF: OIIE 222300Z 2300/2406 30008KT 9999 FEW035 TEMPO 2310/2315 30008G18KT

Observações e previsões do tempo de mais de 4000 aeroportos (mensagens METAR e TAF).

As estações disponíveis são os pontos amarelos e vermelhos sobre o mapa.

Mova o rato sobre o mapa para ver o nome da estação.

Depois clique no ponto para visualizar as observações e previsões meteorológicas.

Para alterar o mapa : clique nos botões verdes com uma cruz preta para aumentar o zoom; no botão verde com uma pitada de zoom; ou nas setas verdes para mapas adjacentes.


METAR-TAF: